createdAt,value
2022-10-01T00:02:11.228Z,74.37
2022-10-01T00:04:39.905Z,74.88
2022-10-01T00:07:10.938Z,76.18
2022-10-01T00:09:39.324Z,76.26
2022-10-01T00:12:08.907Z,76.99
2022-10-01T00:14:39.522Z,78.30
2022-10-01T00:17:07.370Z,78.62
2022-10-01T00:19:35.401Z,78.92
2022-10-01T00:22:03.398Z,79.42
2022-10-01T00:24:31.187Z,79.95
2022-10-01T00:26:58.945Z,79.74
2022-10-01T00:29:26.667Z,80.35
2022-10-01T00:31:56.052Z,81.53
2022-10-01T00:34:23.888Z,81.60
2022-10-01T00:36:51.744Z,82.38
2022-10-01T00:39:19.497Z,83.31
2022-10-01T00:41:48.042Z,83.02
2022-10-01T00:44:34.605Z,84.90
2022-10-01T00:47:10.578Z,84.18
2022-10-01T00:49:40.064Z,83.99
2022-10-01T00:52:14.277Z,84.47
2022-10-01T00:54:46.585Z,85.62
2022-10-01T00:57:17.856Z,85.87
2022-10-01T00:59:47.081Z,86.18
2022-10-01T01:02:16.274Z,85.48
2022-10-01T01:04:44.874Z,85.92
2022-10-01T01:07:13.377Z,86.16
2022-10-01T01:09:44.465Z,85.75
2022-10-01T01:12:24.852Z,86.16
2022-10-01T01:15:02.960Z,86.88
2022-10-01T01:17:37.984Z,86.40
2022-10-01T01:20:27.152Z,86.56
2022-10-01T01:23:07.196Z,87.31
2022-10-01T01:25:42.388Z,87.55
2022-10-01T01:28:23.595Z,88.37
2022-10-01T01:30:54.259Z,87.93
2022-10-01T01:33:25.807Z,88.22
2022-10-01T01:35:58.200Z,87.88
2022-10-01T01:38:30.136Z,89.76
2022-10-01T01:41:01.604Z,89.22
2022-10-01T01:43:33.492Z,89.27
2022-10-01T01:46:03.431Z,89.07
2022-10-01T01:48:33.312Z,89.29
2022-10-01T01:51:06.024Z,89.32
2022-10-01T01:53:34.596Z,88.88
2022-10-01T01:56:02.796Z,89.88
2022-10-01T01:58:35.240Z,90.16
2022-10-01T02:01:03.982Z,89.42
2022-10-01T02:03:34.344Z,89.24
2022-10-01T02:06:13.039Z,89.93
2022-10-01T02:08:49.328Z,91.57
2022-10-01T02:11:24.948Z,91.64
2022-10-01T02:14:04.586Z,92.74
2022-10-01T02:16:39.742Z,92.27
2022-10-01T02:19:15.956Z,92.48
2022-10-01T02:21:55.669Z,93.38
2022-10-01T02:24:34.048Z,93.20
2022-10-01T02:27:04.714Z,92.99
2022-10-01T02:29:36.567Z,94.37
2022-10-01T02:32:04.446Z,94.13
2022-10-01T02:34:33.891Z,95.29
2022-10-01T02:37:05.140Z,95.40
2022-10-01T02:39:35.243Z,95.53
2022-10-01T02:42:07.637Z,96.00
2022-10-01T02:44:40.314Z,95.34
2022-10-01T02:47:13.369Z,96.49
2022-10-01T02:49:42.345Z,96.02
2022-10-01T02:52:17.916Z,96.06
2022-10-01T02:54:51.227Z,96.33
2022-10-01T02:57:26.954Z,96.27
2022-10-01T02:59:59.238Z,96.25
2022-10-01T03:02:27.957Z,95.58
2022-10-01T03:04:56.718Z,95.53
2022-10-01T03:07:25.422Z,95.77
2022-10-01T03:09:53.444Z,95.64
2022-10-01T03:12:21.860Z,95.63
2022-10-01T03:14:49.825Z,96.19
2022-10-01T03:17:19.684Z,96.00
2022-10-01T03:19:47.492Z,95.79
2022-10-01T03:22:18.191Z,96.32
2022-10-01T03:24:45.909Z,96.17
2022-10-01T03:27:13.774Z,96.36
2022-10-01T03:29:41.758Z,96.18
2022-10-01T03:32:09.534Z,96.41
2022-10-01T03:34:38.680Z,96.46
2022-10-01T03:37:06.739Z,96.63
2022-10-01T03:39:34.759Z,96.25
2022-10-01T03:42:02.532Z,95.88
2022-10-01T03:44:30.256Z,95.49
2022-10-01T03:46:58.174Z,95.28
2022-10-01T03:49:25.918Z,95.51
2022-10-01T03:51:55.259Z,95.39
2022-10-01T03:54:23.460Z,95.71
2022-10-01T03:56:52.321Z,95.89
2022-10-01T03:59:20.348Z,96.00
2022-10-01T04:01:48.241Z,95.84
2022-10-01T04:04:17.084Z,96.42
2022-10-01T04:06:44.969Z,96.70
2022-10-01T04:09:14.151Z,96.68
2022-10-01T04:11:41.969Z,96.86
2022-10-01T04:14:09.798Z,97.46
2022-10-01T04:16:37.602Z,97.28
2022-10-01T04:19:06.235Z,97.24
2022-10-01T04:21:34.270Z,97.27
2022-10-01T04:24:05.103Z,97.76
2022-10-01T04:26:34.276Z,98.20
2022-10-01T04:29:02.037Z,98.54
2022-10-01T04:31:34.817Z,99.14
2022-10-01T04:34:03.219Z,99.19
2022-10-01T04:36:31.090Z,99.13
2022-10-01T04:39:02.439Z,99.19
2022-10-01T04:41:31.806Z,98.33
2022-10-01T04:44:01.467Z,98.39
2022-10-01T04:46:30.438Z,97.94
2022-10-01T04:48:58.449Z,98.19
2022-10-01T04:51:26.246Z,98.28
2022-10-01T04:53:54.120Z,98.11
2022-10-01T04:56:21.892Z,98.26
2022-10-01T04:58:49.716Z,98.31
2022-10-01T05:01:18.849Z,97.89
2022-10-01T05:03:46.744Z,98.35
2022-10-01T05:06:14.666Z,98.49
2022-10-01T05:08:42.471Z,98.31
2022-10-01T05:11:10.237Z,98.46
2022-10-01T05:13:38.001Z,98.74
2022-10-01T05:16:06.094Z,99.71
2022-10-01T05:18:35.234Z,99.34
2022-10-01T05:21:05.902Z,100.00
2022-10-01T05:23:33.907Z,100.00
2022-10-01T05:26:02.590Z,99.77
2022-10-01T05:28:30.996Z,99.97
2022-10-01T05:31:00.495Z,99.92
2022-10-01T05:33:28.635Z,99.61
2022-10-01T05:35:57.902Z,99.99
2022-10-01T05:38:26.039Z,100.00
2022-10-01T05:40:53.831Z,99.99
2022-10-01T05:43:21.596Z,99.92
2022-10-01T05:45:49.873Z,100.00
2022-10-01T05:48:17.766Z,99.92
2022-10-01T05:50:46.666Z,100.00
2022-10-01T05:53:16.135Z,100.00
2022-10-01T05:55:44.171Z,100.00
2022-10-01T05:58:13.701Z,100.00
2022-10-01T06:00:43.334Z,100.00
2022-10-01T06:03:13.401Z,100.00
2022-10-01T06:05:41.258Z,100.00
2022-10-01T06:08:10.735Z,100.00
2022-10-01T06:10:40.618Z,100.00
2022-10-01T06:13:08.977Z,100.00
2022-10-01T06:15:39.526Z,100.00
2022-10-01T06:18:09.077Z,100.00
2022-10-01T06:20:37.021Z,100.00
2022-10-01T06:23:07.420Z,100.00
2022-10-01T06:25:36.474Z,100.00
2022-10-01T06:28:07.401Z,100.00
2022-10-01T06:30:36.884Z,100.00
2022-10-01T06:33:06.424Z,100.00
2022-10-01T06:35:35.144Z,100.00
2022-10-01T06:38:03.340Z,100.00
2022-10-01T06:40:31.936Z,100.00
2022-10-01T06:42:59.939Z,100.00
2022-10-01T06:45:30.457Z,100.00
2022-10-01T06:48:02.574Z,100.00
2022-10-01T06:50:31.355Z,100.00
2022-10-01T06:52:59.040Z,100.00
2022-10-01T06:55:29.085Z,100.00
2022-10-01T06:57:58.609Z,100.00
2022-10-01T07:00:26.778Z,100.00
2022-10-01T07:02:56.642Z,100.00
2022-10-01T07:05:25.381Z,100.00
2022-10-01T07:07:53.727Z,100.00
2022-10-01T07:10:23.275Z,100.00
2022-10-01T07:12:52.001Z,100.00
2022-10-01T07:15:22.830Z,100.00
2022-10-01T07:17:51.910Z,100.00
2022-10-01T07:20:22.231Z,100.00
2022-10-01T07:22:57.169Z,100.00
2022-10-01T07:25:25.606Z,100.00
2022-10-01T07:27:56.860Z,100.00
2022-10-01T07:30:24.995Z,100.00
2022-10-01T07:32:52.797Z,100.00
2022-10-01T07:35:22.466Z,100.00
2022-10-01T07:37:51.149Z,100.00
2022-10-01T07:40:19.637Z,100.00
2022-10-01T07:42:55.313Z,100.00
2022-10-01T07:45:23.694Z,100.00
2022-10-01T07:47:58.364Z,100.00
2022-10-01T07:50:30.501Z,100.00
2022-10-01T07:52:59.526Z,100.00
2022-10-01T07:55:32.856Z,100.00
2022-10-01T07:58:02.285Z,100.00
2022-10-01T08:00:32.928Z,100.00
2022-10-01T08:03:00.912Z,100.00
2022-10-01T08:05:33.908Z,100.00
2022-10-01T08:08:03.129Z,100.00
2022-10-01T08:10:34.466Z,100.00
2022-10-01T08:13:02.409Z,100.00
2022-10-01T08:15:30.349Z,100.00
2022-10-01T08:17:58.191Z,100.00
2022-10-01T08:20:26.021Z,100.00
2022-10-01T08:22:55.520Z,100.00
2022-10-01T08:25:23.300Z,100.00
2022-10-01T08:27:51.195Z,100.00
2022-10-01T08:30:19.138Z,100.00
2022-10-01T08:32:46.916Z,100.00
2022-10-01T08:35:16.821Z,100.00
2022-10-01T08:37:45.247Z,100.00
2022-10-01T08:40:14.633Z,100.00
2022-10-01T08:42:52.180Z,100.00
2022-10-01T08:45:26.517Z,100.00
2022-10-01T08:48:01.690Z,100.00
2022-10-01T08:50:37.462Z,100.00
2022-10-01T08:53:15.322Z,100.00
2022-10-01T08:55:46.479Z,100.00
2022-10-01T08:58:24.900Z,100.00
2022-10-01T09:00:53.025Z,100.00
2022-10-01T09:03:21.164Z,100.00
2022-10-01T09:06:13.293Z,100.00
2022-10-01T09:08:54.648Z,100.00
2022-10-01T09:11:46.785Z,100.00
2022-10-01T09:14:46.849Z,100.00
2022-10-01T09:17:24.550Z,100.00
2022-10-01T09:20:04.334Z,100.00
2022-10-01T09:22:39.873Z,100.00
2022-10-01T09:25:22.600Z,100.00
2022-10-01T09:27:52.735Z,100.00
2022-10-01T09:30:23.543Z,100.00
2022-10-01T09:32:57.309Z,100.00
2022-10-01T09:35:32.834Z,100.00
2022-10-01T09:38:04.748Z,100.00
2022-10-01T09:40:37.104Z,100.00
2022-10-01T09:43:08.763Z,100.00
2022-10-01T09:45:38.220Z,100.00
2022-10-01T09:48:19.890Z,100.00
2022-10-01T09:50:55.779Z,100.00
2022-10-01T09:53:30.766Z,100.00
2022-10-01T09:56:04.302Z,100.00
2022-10-01T09:58:37.886Z,100.00
2022-10-01T10:01:12.880Z,100.00
2022-10-01T10:03:40.748Z,100.00
2022-10-01T10:06:10.315Z,100.00
2022-10-01T10:08:40.638Z,100.00
2022-10-01T10:11:11.797Z,100.00
2022-10-01T10:13:44.648Z,100.00
2022-10-01T10:16:24.592Z,100.00
2022-10-01T10:18:53.497Z,100.00
2022-10-01T10:21:25.436Z,100.00
2022-10-01T10:23:55.338Z,100.00
2022-10-01T10:26:29.734Z,100.00
2022-10-01T10:29:01.814Z,100.00
2022-10-01T10:31:36.703Z,100.00
2022-10-01T10:34:09.381Z,99.76
2022-10-01T10:36:38.232Z,100.00
2022-10-01T10:39:08.198Z,98.88
2022-10-01T10:41:36.828Z,98.86
2022-10-01T10:44:09.081Z,97.68
2022-10-01T10:46:44.042Z,97.74
2022-10-01T10:49:21.938Z,97.42
2022-10-01T10:51:53.927Z,96.80
2022-10-01T10:54:25.427Z,95.82
2022-10-01T10:56:55.482Z,96.34
2022-10-01T10:59:25.170Z,95.89
2022-10-01T11:01:53.813Z,95.23
2022-10-01T11:04:28.886Z,95.30
2022-10-01T11:07:01.164Z,95.26
2022-10-01T11:09:40.251Z,95.48
2022-10-01T11:12:17.314Z,94.75
2022-10-01T11:14:57.742Z,93.96
2022-10-01T11:17:47.746Z,93.12
2022-10-01T11:20:32.437Z,92.06
2022-10-01T11:23:22.246Z,91.47
2022-10-01T11:25:58.891Z,92.62
2022-10-01T11:28:38.929Z,90.06
2022-10-01T11:31:16.920Z,90.54
2022-10-01T11:34:01.458Z,90.39
2022-10-01T11:36:37.175Z,90.05
2022-10-01T11:39:11.105Z,89.32
2022-10-01T11:41:44.115Z,90.05
2022-10-01T11:44:18.510Z,89.13
2022-10-01T11:46:54.467Z,88.40
2022-10-01T11:49:47.968Z,87.20
2022-10-01T11:52:33.337Z,87.67
2022-10-01T11:55:32.214Z,88.26
2022-10-01T11:58:24.440Z,89.25
2022-10-01T12:01:01.744Z,88.14
2022-10-01T12:03:37.815Z,85.04
2022-10-01T12:06:09.448Z,86.23
2022-10-01T12:08:39.910Z,85.66
2022-10-01T12:11:17.747Z,85.26
2022-10-01T12:13:53.109Z,86.13
2022-10-01T12:16:30.288Z,86.34
2022-10-01T12:19:04.331Z,85.72
2022-10-01T12:21:38.310Z,85.66
2022-10-01T12:24:12.838Z,85.35
2022-10-01T12:26:49.763Z,84.18
2022-10-01T12:29:25.125Z,83.79
2022-10-01T12:32:04.060Z,83.55
2022-10-01T12:34:49.317Z,81.56
2022-10-01T12:37:35.831Z,82.38
2022-10-01T12:40:19.625Z,82.44
2022-10-01T12:43:24.104Z,81.82
2022-10-01T12:45:57.322Z,80.89
2022-10-01T12:48:32.488Z,79.67
2022-10-01T12:51:22.318Z,78.51
2022-10-01T12:54:03.533Z,78.91
2022-10-01T12:56:37.966Z,78.45
2022-10-01T12:59:16.932Z,78.11
2022-10-01T13:02:00.231Z,77.66
2022-10-01T13:05:05.512Z,78.58
2022-10-01T13:07:50.244Z,76.86
2022-10-01T13:10:32.003Z,76.04
2022-10-01T13:13:06.453Z,75.66
2022-10-01T13:15:38.299Z,75.83
2022-10-01T13:18:22.071Z,76.07
2022-10-01T13:20:58.460Z,75.93
2022-10-01T13:23:36.196Z,75.31
2022-10-01T13:26:10.305Z,75.76
2022-10-01T13:28:53.949Z,73.82
2022-10-01T13:31:35.123Z,73.79
2022-10-01T13:34:03.358Z,72.81
2022-10-01T13:36:33.127Z,72.38
2022-10-01T13:39:03.145Z,72.54
2022-10-01T13:41:33.599Z,73.04
2022-10-01T13:44:16.365Z,72.81
2022-10-01T13:46:52.180Z,72.21
2022-10-01T13:49:28.790Z,72.28
2022-10-01T13:51:57.402Z,72.54
2022-10-01T13:54:29.026Z,72.09
2022-10-01T13:56:56.930Z,69.15
2022-10-01T13:59:34.480Z,68.83
2022-10-01T14:02:03.050Z,69.63
2022-10-01T14:04:37.601Z,68.97
2022-10-01T14:07:15.328Z,68.35
2022-10-01T14:09:47.183Z,70.01
2022-10-01T14:12:37.126Z,70.39
2022-10-01T14:15:34.370Z,69.51
2022-10-01T14:18:05.553Z,69.88
2022-10-01T14:20:37.343Z,69.87
2022-10-01T14:23:11.960Z,70.24
2022-10-01T14:25:53.642Z,70.08
2022-10-01T14:28:32.955Z,68.10
2022-10-01T14:31:08.413Z,69.33
2022-10-01T14:33:54.045Z,69.38
2022-10-01T14:36:29.500Z,70.20
2022-10-01T14:39:05.643Z,70.33
2022-10-01T14:41:36.279Z,70.70
2022-10-01T14:44:20.277Z,70.40
2022-10-01T14:46:48.112Z,71.73
2022-10-01T14:49:24.459Z,70.55
2022-10-01T14:51:56.185Z,71.74
2022-10-01T14:54:24.828Z,71.63
2022-10-01T14:56:54.929Z,71.03
2022-10-01T14:59:32.369Z,69.99
2022-10-01T15:02:02.942Z,70.35
2022-10-01T15:04:30.791Z,70.62
2022-10-01T15:07:05.425Z,69.06
2022-10-01T15:09:35.086Z,70.70
2022-10-01T15:12:07.033Z,68.43
2022-10-01T15:14:34.952Z,69.65
2022-10-01T15:17:05.034Z,68.27
2022-10-01T15:19:34.279Z,68.37
2022-10-01T15:22:03.683Z,68.79
2022-10-01T15:24:40.998Z,67.80
2022-10-01T15:27:12.257Z,68.21
2022-10-01T15:29:42.102Z,68.30
2022-10-01T15:32:11.717Z,68.48
2022-10-01T15:34:41.368Z,68.17
2022-10-01T15:37:18.469Z,67.90
2022-10-01T15:39:51.225Z,67.73
2022-10-01T15:42:26.785Z,66.59
2022-10-01T15:45:21.457Z,66.44
2022-10-01T15:47:51.782Z,67.54
2022-10-01T15:50:22.031Z,67.47
2022-10-01T15:52:55.552Z,66.65
2022-10-01T15:55:31.549Z,66.83
2022-10-01T15:58:07.034Z,66.07
2022-10-01T16:00:43.445Z,67.41
2022-10-01T16:03:23.320Z,67.68
2022-10-01T16:05:54.955Z,67.76
2022-10-01T16:08:25.767Z,67.90
2022-10-01T16:11:17.088Z,67.78
2022-10-01T16:13:48.818Z,68.59
2022-10-01T16:16:25.761Z,67.64
2022-10-01T16:18:56.315Z,67.94
2022-10-01T16:21:24.537Z,67.76
2022-10-01T16:23:53.541Z,68.07
2022-10-01T16:26:37.799Z,67.46
2022-10-01T16:29:19.661Z,67.86
2022-10-01T16:31:47.782Z,67.96
2022-10-01T16:34:18.318Z,67.42
2022-10-01T16:36:46.603Z,67.48
2022-10-01T16:39:15.390Z,67.39
2022-10-01T16:41:45.238Z,67.78
2022-10-01T16:44:15.155Z,67.67
2022-10-01T16:46:43.412Z,68.31
2022-10-01T16:49:15.100Z,68.07
2022-10-01T16:51:43.484Z,67.91
2022-10-01T16:54:21.845Z,67.70
2022-10-01T16:56:50.556Z,68.28
2022-10-01T16:59:22.747Z,68.81
2022-10-01T17:01:54.626Z,69.41
2022-10-01T17:04:23.754Z,68.89
2022-10-01T17:06:51.742Z,68.89
2022-10-01T17:09:19.530Z,69.29
2022-10-01T17:11:47.933Z,70.00
2022-10-01T17:14:17.993Z,69.67
2022-10-01T17:16:47.608Z,69.85
2022-10-01T17:19:15.857Z,69.59
2022-10-01T17:21:43.732Z,69.93
2022-10-01T17:24:11.548Z,69.78
2022-10-01T17:26:40.616Z,69.77
2022-10-01T17:29:09.165Z,70.44
2022-10-01T17:31:38.120Z,70.56
2022-10-01T17:34:08.353Z,71.05
2022-10-01T17:36:36.367Z,70.76
2022-10-01T17:39:04.808Z,71.53
2022-10-01T17:41:32.555Z,71.04
2022-10-01T17:44:00.346Z,71.14
2022-10-01T17:46:28.182Z,72.00
2022-10-01T17:48:55.980Z,71.77
2022-10-01T17:51:25.921Z,71.79
2022-10-01T17:53:54.929Z,71.92
2022-10-01T17:56:23.095Z,72.01
2022-10-01T17:58:50.972Z,72.26
2022-10-01T18:01:21.970Z,72.42
2022-10-01T18:03:53.835Z,72.82
2022-10-01T18:06:21.678Z,72.83
2022-10-01T18:08:55.451Z,73.42
2022-10-01T18:11:25.038Z,73.41
2022-10-01T18:13:53.302Z,73.35
2022-10-01T18:16:21.658Z,73.59
2022-10-01T18:19:51.924Z,73.72
2022-10-01T18:21:37.326Z,74.35
2022-10-01T18:24:07.054Z,74.64
2022-10-01T18:26:35.097Z,74.96
2022-10-01T18:29:03.691Z,75.12
2022-10-01T18:31:36.677Z,75.11
2022-10-01T18:34:13.397Z,74.99
2022-10-01T18:36:48.706Z,75.79
2022-10-01T18:39:24.883Z,75.87
2022-10-01T18:41:52.722Z,76.31
2022-10-01T18:44:21.577Z,76.46
2022-10-01T18:47:15.110Z,77.19
2022-10-01T18:49:59.833Z,76.94
2022-10-01T18:52:38.340Z,77.43
2022-10-01T18:55:30.525Z,77.75
2022-10-01T18:58:23.183Z,77.69
2022-10-01T19:01:01.882Z,77.45
2022-10-01T19:03:53.435Z,77.89
2022-10-01T19:06:40.706Z,78.06
2022-10-01T19:09:22.581Z,77.68
2022-10-01T19:12:00.899Z,77.57
2022-10-01T19:14:47.484Z,77.92
2022-10-01T19:17:32.493Z,78.51
2022-10-01T19:20:21.470Z,77.87
2022-10-01T19:23:03.955Z,78.63
2022-10-01T19:25:37.433Z,78.89
2022-10-01T19:28:18.161Z,78.59
2022-10-01T19:31:04.373Z,79.38
2022-10-01T19:33:36.820Z,79.10
2022-10-01T19:36:06.804Z,79.54
2022-10-01T19:38:38.550Z,80.52
2022-10-01T19:41:14.842Z,80.46
2022-10-01T19:43:51.771Z,80.25
2022-10-01T19:46:26.469Z,80.71
2022-10-01T19:49:00.647Z,80.75
2022-10-01T19:51:33.934Z,80.69
2022-10-01T19:54:03.536Z,80.74
2022-10-01T19:56:34.806Z,80.80
2022-10-01T19:59:08.607Z,81.06
2022-10-01T20:01:40.171Z,81.07
2022-10-01T20:04:15.832Z,81.18
2022-10-01T20:06:47.238Z,81.47
2022-10-01T20:09:27.026Z,81.56
2022-10-01T20:12:05.484Z,81.44
2022-10-01T20:15:05.331Z,81.66
2022-10-01T20:17:47.827Z,82.08
2022-10-01T20:20:23.453Z,82.62
2022-10-01T20:23:04.407Z,82.86
2022-10-01T20:25:42.247Z,82.52
2022-10-01T20:28:20.421Z,82.29
2022-10-01T20:30:59.141Z,82.62
2022-10-01T20:33:37.517Z,83.09
2022-10-01T20:36:12.679Z,82.76
2022-10-01T20:38:47.134Z,82.76
2022-10-01T20:41:18.175Z,83.45
2022-10-01T20:43:49.411Z,83.49
2022-10-01T20:46:34.797Z,83.29
2022-10-01T20:49:05.584Z,83.20
2022-10-01T20:51:37.172Z,83.08
2022-10-01T20:54:12.437Z,83.76
2022-10-01T20:56:43.185Z,83.88
2022-10-01T20:59:19.201Z,83.83
2022-10-01T21:02:02.525Z,84.36
2022-10-01T21:04:34.348Z,84.39
2022-10-01T21:07:21.162Z,84.08
2022-10-01T21:09:54.176Z,84.63
2022-10-01T21:12:28.067Z,84.65
2022-10-01T21:14:57.026Z,85.06
2022-10-01T21:17:44.176Z,85.33
2022-10-01T21:20:45.138Z,86.33
2022-10-01T21:23:26.493Z,85.75
2022-10-01T21:26:06.409Z,86.49
2022-10-01T21:28:52.868Z,85.84
2022-10-01T21:31:35.430Z,85.74
2022-10-01T21:34:12.942Z,85.69
2022-10-01T21:36:57.106Z,86.36
2022-10-01T21:39:33.003Z,85.71
2022-10-01T21:42:15.014Z,85.76
2022-10-01T21:45:08.214Z,86.53
2022-10-01T21:47:50.600Z,86.09
2022-10-01T21:50:35.077Z,86.10
2022-10-01T21:53:39.028Z,85.92
2022-10-01T21:56:20.479Z,86.31
2022-10-01T21:59:01.381Z,86.26
2022-10-01T22:01:46.312Z,86.33
2022-10-01T22:04:20.906Z,86.71
2022-10-01T22:06:54.266Z,87.70
2022-10-01T22:09:34.309Z,87.02
2022-10-01T22:12:06.091Z,87.41
2022-10-01T22:14:34.407Z,86.74
2022-10-01T22:17:08.670Z,86.55
2022-10-01T22:19:40.045Z,86.32
2022-10-01T22:22:13.089Z,86.89
2022-10-01T22:24:47.382Z,87.45
2022-10-01T22:27:21.211Z,87.46
2022-10-01T22:29:55.692Z,87.44
2022-10-01T22:32:27.013Z,87.19
2022-10-01T22:35:00.387Z,87.28
2022-10-01T22:37:38.501Z,87.24
2022-10-01T22:40:13.335Z,87.14
2022-10-01T22:42:45.242Z,87.79
2022-10-01T22:45:17.515Z,88.62
2022-10-01T22:48:02.785Z,88.68
2022-10-01T22:50:43.445Z,88.84
2022-10-01T22:53:28.440Z,88.82
2022-10-01T22:55:57.986Z,89.02
2022-10-01T22:58:36.702Z,88.92
2022-10-01T23:01:15.576Z,89.15
2022-10-01T23:04:07.305Z,89.79
2022-10-01T23:06:42.143Z,89.56
2022-10-01T23:09:16.852Z,89.94
2022-10-01T23:11:57.624Z,89.41
2022-10-01T23:14:42.798Z,89.61
2022-10-01T23:17:14.965Z,90.04
2022-10-01T23:19:59.007Z,89.44
2022-10-01T23:22:42.570Z,89.94
2022-10-01T23:25:20.641Z,91.14
2022-10-01T23:28:07.031Z,90.77
2022-10-01T23:30:47.933Z,90.99
2022-10-01T23:33:33.447Z,91.61
2022-10-01T23:36:10.235Z,91.20
2022-10-01T23:38:57.801Z,90.49
2022-10-01T23:41:33.990Z,90.67
2022-10-01T23:44:09.107Z,91.21
2022-10-01T23:46:40.975Z,91.52
2022-10-01T23:49:15.426Z,91.88
2022-10-01T23:51:49.512Z,91.76
2022-10-01T23:54:24.902Z,92.19
2022-10-01T23:56:57.969Z,92.43
2022-10-01T23:59:30.012Z,92.43
